sensor_id;sensor_type;location;lat;lon;timestamp;temperature;humidity
45229;DHT22;30967;51.728;8.682;2022-09-17T00:01:21;15.70;99.90
45229;DHT22;30967;51.728;8.682;2022-09-17T00:03:51;15.70;99.90
45229;DHT22;30967;51.728;8.682;2022-09-17T00:06:18;15.70;99.90
45229;DHT22;30967;51.728;8.682;2022-09-17T00:08:44;15.60;99.90
45229;DHT22;30967;51.728;8.682;2022-09-17T00:11:14;15.60;99.90
45229;DHT22;30967;51.728;8.682;2022-09-17T00:13:40;15.60;99.90
45229;DHT22;30967;51.728;8.682;2022-09-17T00:16:06;15.60;99.90
45229;DHT22;30967;51.728;8.682;2022-09-17T00:18:32;15.70;99.90
45229;DHT22;30967;51.728;8.682;2022-09-17T00:20:58;15.70;99.90
45229;DHT22;30967;51.728;8.682;2022-09-17T00:23:24;15.70;99.90
45229;DHT22;30967;51.728;8.682;2022-09-17T00:25:49;15.70;99.90
45229;DHT22;30967;51.728;8.682;2022-09-17T00:28:15;15.70;99.90
45229;DHT22;30967;51.728;8.682;2022-09-17T00:30:42;15.70;99.90
45229;DHT22;30967;51.728;8.682;2022-09-17T00:33:11;15.70;99.90
45229;DHT22;30967;51.728;8.682;2022-09-17T00:35:36;15.60;99.90
45229;DHT22;30967;51.728;8.682;2022-09-17T00:38:02;15.60;99.90
45229;DHT22;30967;51.728;8.682;2022-09-17T00:40:33;15.60;99.90
45229;DHT22;30967;51.728;8.682;2022-09-17T00:42:59;15.60;99.90
45229;DHT22;30967;51.728;8.682;2022-09-17T00:45:25;15.60;99.90
45229;DHT22;30967;51.728;8.682;2022-09-17T00:48:00;15.60;99.90
45229;DHT22;30967;51.728;8.682;2022-09-17T00:50:34;15.60;99.90
45229;DHT22;30967;51.728;8.682;2022-09-17T00:53:11;15.60;99.90
45229;DHT22;30967;51.728;8.682;2022-09-17T00:55:55;15.60;99.90
45229;DHT22;30967;51.728;8.682;2022-09-17T00:58:23;15.60;99.90
45229;DHT22;30967;51.728;8.682;2022-09-17T01:00:50;15.60;99.90
45229;DHT22;30967;51.728;8.682;2022-09-17T01:03:15;15.60;99.90
45229;DHT22;30967;51.728;8.682;2022-09-17T01:05:45;15.60;99.90
45229;DHT22;30967;51.728;8.682;2022-09-17T01:11:30;15.60;99.90
45229;DHT22;30967;51.728;8.682;2022-09-17T01:17:12;15.60;99.90
45229;DHT22;30967;51.728;8.682;2022-09-17T01:19:49;15.50;99.90
45229;DHT22;30967;51.728;8.682;2022-09-17T01:22:26;15.50;99.90
45229;DHT22;30967;51.728;8.682;2022-09-17T01:28:08;15.50;99.90
45229;DHT22;30967;51.728;8.682;2022-09-17T01:30:53;15.50;99.90
45229;DHT22;30967;51.728;8.682;2022-09-17T01:41:54;15.50;99.90
45229;DHT22;30967;51.728;8.682;2022-09-17T01:47:14;15.50;99.90
45229;DHT22;30967;51.728;8.682;2022-09-17T01:49:42;15.50;99.90
45229;DHT22;30967;51.728;8.682;2022-09-17T01:52:10;15.50;99.90
45229;DHT22;30967;51.728;8.682;2022-09-17T01:54:50;15.50;99.90
45229;DHT22;30967;51.728;8.682;2022-09-17T01:57:32;15.50;99.90
45229;DHT22;30967;51.728;8.682;2022-09-17T02:00:07;15.50;99.90
45229;DHT22;30967;51.728;8.682;2022-09-17T02:02:49;15.50;99.90
45229;DHT22;30967;51.728;8.682;2022-09-17T02:05:22;15.50;99.90
45229;DHT22;30967;51.728;8.682;2022-09-17T02:07:53;15.50;99.90
45229;DHT22;30967;51.728;8.682;2022-09-17T02:10:24;15.50;99.90
45229;DHT22;30967;51.728;8.682;2022-09-17T02:13:25;15.50;99.90
45229;DHT22;30967;51.728;8.682;2022-09-17T02:15:56;15.50;99.90
45229;DHT22;30967;51.728;8.682;2022-09-17T02:18:36;15.40;99.90
45229;DHT22;30967;51.728;8.682;2022-09-17T02:21:27;15.40;99.90
45229;DHT22;30967;51.728;8.682;2022-09-17T02:29:48;15.40;99.90
45229;DHT22;30967;51.728;8.682;2022-09-17T02:32:14;15.40;99.90
45229;DHT22;30967;51.728;8.682;2022-09-17T02:34:40;15.40;99.90
45229;DHT22;30967;51.728;8.682;2022-09-17T02:37:06;15.40;99.90
45229;DHT22;30967;51.728;8.682;2022-09-17T02:39:32;15.40;99.90
45229;DHT22;30967;51.728;8.682;2022-09-17T02:42:22;15.40;99.90
45229;DHT22;30967;51.728;8.682;2022-09-17T02:45:01;15.40;99.90
45229;DHT22;30967;51.728;8.682;2022-09-17T02:50:28;15.30;99.90
45229;DHT22;30967;51.728;8.682;2022-09-17T02:55:40;15.30;99.90
45229;DHT22;30967;51.728;8.682;2022-09-17T02:58:16;15.30;99.90
45229;DHT22;30967;51.728;8.682;2022-09-17T03:00:43;15.30;99.90
45229;DHT22;30967;51.728;8.682;2022-09-17T03:03:29;15.30;99.90
45229;DHT22;30967;51.728;8.682;2022-09-17T03:05:57;15.30;99.90
45229;DHT22;30967;51.728;8.682;2022-09-17T03:08:33;15.30;99.90
45229;DHT22;30967;51.728;8.682;2022-09-17T03:11:02;15.30;99.90
45229;DHT22;30967;51.728;8.682;2022-09-17T03:13:29;15.30;99.90
45229;DHT22;30967;51.728;8.682;2022-09-17T03:16:05;15.30;99.90
45229;DHT22;30967;51.728;8.682;2022-09-17T03:18:31;15.30;99.90
45229;DHT22;30967;51.728;8.682;2022-09-17T03:20:57;15.30;99.90
45229;DHT22;30967;51.728;8.682;2022-09-17T03:23:25;15.20;99.90
45229;DHT22;30967;51.728;8.682;2022-09-17T03:25:52;15.20;99.90
45229;DHT22;30967;51.728;8.682;2022-09-17T03:28:18;15.20;99.90
45229;DHT22;30967;51.728;8.682;2022-09-17T03:30:44;15.20;99.90
45229;DHT22;30967;51.728;8.682;2022-09-17T03:33:10;15.20;99.90
45229;DHT22;30967;51.728;8.682;2022-09-17T03:35:35;15.20;99.90
45229;DHT22;30967;51.728;8.682;2022-09-17T03:38:06;15.20;99.90
45229;DHT22;30967;51.728;8.682;2022-09-17T03:40:32;15.20;99.90
45229;DHT22;30967;51.728;8.682;2022-09-17T03:42:57;15.10;99.90
45229;DHT22;30967;51.728;8.682;2022-09-17T03:45:23;15.10;99.90
45229;DHT22;30967;51.728;8.682;2022-09-17T03:47:48;15.10;99.90
45229;DHT22;30967;51.728;8.682;2022-09-17T03:50:15;15.10;99.90
45229;DHT22;30967;51.728;8.682;2022-09-17T03:52:42;15.10;99.90
45229;DHT22;30967;51.728;8.682;2022-09-17T03:55:09;15.10;99.90
45229;DHT22;30967;51.728;8.682;2022-09-17T03:57:46;15.10;99.90
45229;DHT22;30967;51.728;8.682;2022-09-17T04:00:12;15.10;99.90
45229;DHT22;30967;51.728;8.682;2022-09-17T04:02:39;15.10;99.90
45229;DHT22;30967;51.728;8.682;2022-09-17T04:05:07;15.10;99.90
45229;DHT22;30967;51.728;8.682;2022-09-17T04:07:32;15.00;99.90
45229;DHT22;30967;51.728;8.682;2022-09-17T04:09:58;15.00;99.90
45229;DHT22;30967;51.728;8.682;2022-09-17T04:12:24;15.00;99.90
45229;DHT22;30967;51.728;8.682;2022-09-17T04:14:49;15.00;99.90
45229;DHT22;30967;51.728;8.682;2022-09-17T04:17:15;15.00;99.90
45229;DHT22;30967;51.728;8.682;2022-09-17T04:19:43;15.00;99.90
45229;DHT22;30967;51.728;8.682;2022-09-17T04:22:08;15.00;99.90
45229;DHT22;30967;51.728;8.682;2022-09-17T04:24:34;15.00;99.90
45229;DHT22;30967;51.728;8.682;2022-09-17T04:27:00;15.00;99.90
45229;DHT22;30967;51.728;8.682;2022-09-17T04:29:26;15.00;99.90
45229;DHT22;30967;51.728;8.682;2022-09-17T04:31:51;14.90;99.90
45229;DHT22;30967;51.728;8.682;2022-09-17T04:34:17;15.00;99.90
45229;DHT22;30967;51.728;8.682;2022-09-17T04:36:42;15.00;99.90
45229;DHT22;30967;51.728;8.682;2022-09-17T04:39:08;15.00;99.90
45229;DHT22;30967;51.728;8.682;2022-09-17T04:41:33;14.90;99.90
45229;DHT22;30967;51.728;8.682;2022-09-17T04:44:00;14.90;99.90
45229;DHT22;30967;51.728;8.682;2022-09-17T04:46:26;15.00;99.90
45229;DHT22;30967;51.728;8.682;2022-09-17T04:48:56;14.90;99.90
45229;DHT22;30967;51.728;8.682;2022-09-17T04:51:21;14.90;99.90
45229;DHT22;30967;51.728;8.682;2022-09-17T04:53:47;14.90;99.90
45229;DHT22;30967;51.728;8.682;2022-09-17T04:56:13;14.80;99.90
45229;DHT22;30967;51.728;8.682;2022-09-17T04:58:38;14.80;99.90
45229;DHT22;30967;51.728;8.682;2022-09-17T05:01:04;14.80;99.90
45229;DHT22;30967;51.728;8.682;2022-09-17T05:03:30;14.80;99.90
45229;DHT22;30967;51.728;8.682;2022-09-17T05:05:55;14.80;99.90
45229;DHT22;30967;51.728;8.682;2022-09-17T05:08:21;14.80;99.90
45229;DHT22;30967;51.728;8.682;2022-09-17T05:10:49;14.80;99.90
45229;DHT22;30967;51.728;8.682;2022-09-17T05:13:15;14.80;99.90
45229;DHT22;30967;51.728;8.682;2022-09-17T05:15:41;14.70;99.90
45229;DHT22;30967;51.728;8.682;2022-09-17T05:18:07;14.70;99.90
45229;DHT22;30967;51.728;8.682;2022-09-17T05:20:32;14.70;99.90
45229;DHT22;30967;51.728;8.682;2022-09-17T05:23:04;14.70;99.90
45229;DHT22;30967;51.728;8.682;2022-09-17T05:25:29;14.70;99.90
45229;DHT22;30967;51.728;8.682;2022-09-17T05:27:55;14.70;99.90
45229;DHT22;30967;51.728;8.682;2022-09-17T05:30:21;14.70;99.90
45229;DHT22;30967;51.728;8.682;2022-09-17T05:33:01;14.70;99.90
45229;DHT22;30967;51.728;8.682;2022-09-17T05:35:33;14.70;99.90
45229;DHT22;30967;51.728;8.682;2022-09-17T05:38:02;14.60;99.90
45229;DHT22;30967;51.728;8.682;2022-09-17T05:40:28;14.60;99.90
45229;DHT22;30967;51.728;8.682;2022-09-17T05:42:59;14.60;99.90
45229;DHT22;30967;51.728;8.682;2022-09-17T05:45:35;14.60;99.90
45229;DHT22;30967;51.728;8.682;2022-09-17T05:48:03;14.70;99.90
45229;DHT22;30967;51.728;8.682;2022-09-17T05:50:29;14.70;99.90
45229;DHT22;30967;51.728;8.682;2022-09-17T05:52:55;14.60;99.90
45229;DHT22;30967;51.728;8.682;2022-09-17T05:55:22;14.60;99.90
45229;DHT22;30967;51.728;8.682;2022-09-17T05:57:50;14.60;99.90
45229;DHT22;30967;51.728;8.682;2022-09-17T06:00:16;14.60;99.90
45229;DHT22;30967;51.728;8.682;2022-09-17T06:02:42;14.60;99.90
45229;DHT22;30967;51.728;8.682;2022-09-17T06:05:10;14.60;99.90
45229;DHT22;30967;51.728;8.682;2022-09-17T06:07:36;14.60;99.90
45229;DHT22;30967;51.728;8.682;2022-09-17T06:10:04;14.60;99.90
45229;DHT22;30967;51.728;8.682;2022-09-17T06:12:34;14.50;99.90
45229;DHT22;30967;51.728;8.682;2022-09-17T06:15:00;14.50;99.90
45229;DHT22;30967;51.728;8.682;2022-09-17T06:17:26;14.60;99.90
45229;DHT22;30967;51.728;8.682;2022-09-17T06:19:51;14.50;99.90
45229;DHT22;30967;51.728;8.682;2022-09-17T06:22:18;14.50;99.90
45229;DHT22;30967;51.728;8.682;2022-09-17T06:24:44;14.50;99.90
45229;DHT22;30967;51.728;8.682;2022-09-17T06:27:11;14.50;99.90
45229;DHT22;30967;51.728;8.682;2022-09-17T06:29:38;14.50;99.90
45229;DHT22;30967;51.728;8.682;2022-09-17T06:32:03;14.50;99.90
45229;DHT22;30967;51.728;8.682;2022-09-17T06:34:29;14.50;99.90
45229;DHT22;30967;51.728;8.682;2022-09-17T06:36:55;14.50;99.90
45229;DHT22;30967;51.728;8.682;2022-09-17T06:39:21;14.50;99.90
45229;DHT22;30967;51.728;8.682;2022-09-17T06:41:46;14.50;99.90
45229;DHT22;30967;51.728;8.682;2022-09-17T06:44:12;14.40;99.90
45229;DHT22;30967;51.728;8.682;2022-09-17T06:46:38;14.50;99.90
45229;DHT22;30967;51.728;8.682;2022-09-17T06:49:04;14.40;99.90
45229;DHT22;30967;51.728;8.682;2022-09-17T06:51:30;14.40;99.90
45229;DHT22;30967;51.728;8.682;2022-09-17T06:53:56;14.40;99.90
45229;DHT22;30967;51.728;8.682;2022-09-17T06:56:22;14.40;99.90
45229;DHT22;30967;51.728;8.682;2022-09-17T06:58:47;14.50;99.90
45229;DHT22;30967;51.728;8.682;2022-09-17T07:01:13;14.50;99.90
45229;DHT22;30967;51.728;8.682;2022-09-17T07:03:41;14.40;99.90
45229;DHT22;30967;51.728;8.682;2022-09-17T07:06:16;14.40;99.90
45229;DHT22;30967;51.728;8.682;2022-09-17T07:08:42;14.40;99.90
45229;DHT22;30967;51.728;8.682;2022-09-17T07:11:08;14.40;99.90
45229;DHT22;30967;51.728;8.682;2022-09-17T07:13:34;14.40;99.90
45229;DHT22;30967;51.728;8.682;2022-09-17T07:16:01;14.40;99.90
45229;DHT22;30967;51.728;8.682;2022-09-17T07:18:27;14.40;99.90
45229;DHT22;30967;51.728;8.682;2022-09-17T07:20:54;14.40;99.90
45229;DHT22;30967;51.728;8.682;2022-09-17T07:23:22;14.50;99.90
45229;DHT22;30967;51.728;8.682;2022-09-17T07:25:52;14.50;99.90
45229;DHT22;30967;51.728;8.682;2022-09-17T07:28:18;14.50;99.90
45229;DHT22;30967;51.728;8.682;2022-09-17T07:30:44;14.50;99.90
45229;DHT22;30967;51.728;8.682;2022-09-17T07:33:09;14.50;99.90
45229;DHT22;30967;51.728;8.682;2022-09-17T07:35:35;14.50;99.90
45229;DHT22;30967;51.728;8.682;2022-09-17T07:38:01;14.50;99.90
45229;DHT22;30967;51.728;8.682;2022-09-17T07:40:27;14.50;99.90
45229;DHT22;30967;51.728;8.682;2022-09-17T07:42:56;14.50;99.90
45229;DHT22;30967;51.728;8.682;2022-09-17T07:45:23;14.60;99.90
45229;DHT22;30967;51.728;8.682;2022-09-17T07:47:49;14.60;99.90
45229;DHT22;30967;51.728;8.682;2022-09-17T07:50:15;14.60;99.90
45229;DHT22;30967;51.728;8.682;2022-09-17T07:52:47;14.60;99.90
45229;DHT22;30967;51.728;8.682;2022-09-17T07:55:14;14.60;99.90
45229;DHT22;30967;51.728;8.682;2022-09-17T07:57:40;14.60;99.90
45229;DHT22;30967;51.728;8.682;2022-09-17T08:00:06;14.60;99.90
45229;DHT22;30967;51.728;8.682;2022-09-17T08:02:32;14.60;99.90
45229;DHT22;30967;51.728;8.682;2022-09-17T08:04:57;14.60;99.90
45229;DHT22;30967;51.728;8.682;2022-09-17T08:07:23;14.70;99.90
45229;DHT22;30967;51.728;8.682;2022-09-17T08:09:49;14.60;99.90
45229;DHT22;30967;51.728;8.682;2022-09-17T08:12:14;14.70;99.90
45229;DHT22;30967;51.728;8.682;2022-09-17T08:14:42;14.60;99.90
45229;DHT22;30967;51.728;8.682;2022-09-17T08:17:08;14.60;99.90
45229;DHT22;30967;51.728;8.682;2022-09-17T08:19:33;14.70;99.90
45229;DHT22;30967;51.728;8.682;2022-09-17T08:21:59;14.70;99.90
45229;DHT22;30967;51.728;8.682;2022-09-17T08:24:25;14.60;99.90
45229;DHT22;30967;51.728;8.682;2022-09-17T08:26:52;14.60;99.90
45229;DHT22;30967;51.728;8.682;2022-09-17T08:29:17;14.60;99.90
45229;DHT22;30967;51.728;8.682;2022-09-17T08:31:44;14.70;99.90
45229;DHT22;30967;51.728;8.682;2022-09-17T08:34:10;14.70;99.90
45229;DHT22;30967;51.728;8.682;2022-09-17T08:36:37;14.70;99.90
45229;DHT22;30967;51.728;8.682;2022-09-17T08:39:03;14.70;99.90
45229;DHT22;30967;51.728;8.682;2022-09-17T08:41:40;14.70;99.90
45229;DHT22;30967;51.728;8.682;2022-09-17T08:44:25;14.70;99.90
45229;DHT22;30967;51.728;8.682;2022-09-17T08:46:58;14.70;99.90
45229;DHT22;30967;51.728;8.682;2022-09-17T08:49:59;14.70;99.90
45229;DHT22;30967;51.728;8.682;2022-09-17T09:06:01;14.70;99.90
45229;DHT22;30967;51.728;8.682;2022-09-17T09:08:38;14.70;99.90
45229;DHT22;30967;51.728;8.682;2022-09-17T09:11:13;14.80;99.90
45229;DHT22;30967;51.728;8.682;2022-09-17T09:13:44;14.80;99.90
45229;DHT22;30967;51.728;8.682;2022-09-17T09:16:17;14.80;99.90
45229;DHT22;30967;51.728;8.682;2022-09-17T09:18:46;14.80;99.90
45229;DHT22;30967;51.728;8.682;2022-09-17T09:21:28;14.80;99.90
45229;DHT22;30967;51.728;8.682;2022-09-17T09:24:15;14.80;99.90
45229;DHT22;30967;51.728;8.682;2022-09-17T09:27:35;14.80;99.90
45229;DHT22;30967;51.728;8.682;2022-09-17T09:35:33;14.80;99.90
45229;DHT22;30967;51.728;8.682;2022-09-17T09:43:09;14.90;99.90
45229;DHT22;30967;51.728;8.682;2022-09-17T09:48:50;14.90;99.90
45229;DHT22;30967;51.728;8.682;2022-09-17T09:51:45;14.90;99.90
45229;DHT22;30967;51.728;8.682;2022-09-17T09:59:18;15.00;99.90
45229;DHT22;30967;51.728;8.682;2022-09-17T10:01:44;15.00;99.90
45229;DHT22;30967;51.728;8.682;2022-09-17T10:04:30;15.00;99.90
45229;DHT22;30967;51.728;8.682;2022-09-17T10:07:04;15.00;99.90
45229;DHT22;30967;51.728;8.682;2022-09-17T10:09:31;15.00;99.90
45229;DHT22;30967;51.728;8.682;2022-09-17T10:14:31;15.00;99.90
45229;DHT22;30967;51.728;8.682;2022-09-17T10:17:23;15.10;99.70
45229;DHT22;30967;51.728;8.682;2022-09-17T10:22:36;15.10;99.60
45229;DHT22;30967;51.728;8.682;2022-09-17T10:25:11;15.10;99.40
45229;DHT22;30967;51.728;8.682;2022-09-17T10:27:44;15.10;99.20
45229;DHT22;30967;51.728;8.682;2022-09-17T10:32:36;15.20;99.10
45229;DHT22;30967;51.728;8.682;2022-09-17T10:37:47;15.20;99.20
45229;DHT22;30967;51.728;8.682;2022-09-17T10:42:49;15.30;98.70
45229;DHT22;30967;51.728;8.682;2022-09-17T10:45:25;15.30;98.60
45229;DHT22;30967;51.728;8.682;2022-09-17T10:47:52;15.30;98.40
45229;DHT22;30967;51.728;8.682;2022-09-17T10:50:33;15.30;98.40
45229;DHT22;30967;51.728;8.682;2022-09-17T10:53:03;15.40;98.10
45229;DHT22;30967;51.728;8.682;2022-09-17T11:07:22;15.50;98.00
45229;DHT22;30967;51.728;8.682;2022-09-17T11:10:08;15.60;97.60
45229;DHT22;30967;51.728;8.682;2022-09-17T11:18:18;15.60;96.60
45229;DHT22;30967;51.728;8.682;2022-09-17T11:21:12;15.70;96.10
45229;DHT22;30967;51.728;8.682;2022-09-17T11:37:19;15.70;95.50
45229;DHT22;30967;51.728;8.682;2022-09-17T11:39:51;15.80;95.80
45229;DHT22;30967;51.728;8.682;2022-09-17T11:45:27;15.80;96.60
45229;DHT22;30967;51.728;8.682;2022-09-17T11:48:17;15.80;97.00
45229;DHT22;30967;51.728;8.682;2022-09-17T11:51:05;15.80;97.10
45229;DHT22;30967;51.728;8.682;2022-09-17T11:53:38;15.80;97.40
45229;DHT22;30967;51.728;8.682;2022-09-17T11:56:16;15.80;97.60
45229;DHT22;30967;51.728;8.682;2022-09-17T12:06:45;15.80;97.30
45229;DHT22;30967;51.728;8.682;2022-09-17T12:09:17;15.80;97.60
45229;DHT22;30967;51.728;8.682;2022-09-17T12:14:22;15.80;97.40
45229;DHT22;30967;51.728;8.682;2022-09-17T12:16:52;15.80;97.00
45229;DHT22;30967;51.728;8.682;2022-09-17T12:19:27;15.80;97.00
45229;DHT22;30967;51.728;8.682;2022-09-17T12:21:58;15.80;96.60
45229;DHT22;30967;51.728;8.682;2022-09-17T12:24:27;15.80;96.60
45229;DHT22;30967;51.728;8.682;2022-09-17T12:27:03;15.90;96.40
45229;DHT22;30967;51.728;8.682;2022-09-17T12:29:53;15.90;96.50
45229;DHT22;30967;51.728;8.682;2022-09-17T12:35:24;15.90;97.10
45229;DHT22;30967;51.728;8.682;2022-09-17T12:44:09;15.90;98.40
45229;DHT22;30967;51.728;8.682;2022-09-17T12:52:40;15.90;97.30
45229;DHT22;30967;51.728;8.682;2022-09-17T12:57:45;16.00;96.60
45229;DHT22;30967;51.728;8.682;2022-09-17T13:00:16;16.00;96.10
45229;DHT22;30967;51.728;8.682;2022-09-17T13:02:52;16.00;96.10
45229;DHT22;30967;51.728;8.682;2022-09-17T13:08:22;16.10;95.90
45229;DHT22;30967;51.728;8.682;2022-09-17T13:13:52;16.20;96.00
45229;DHT22;30967;51.728;8.682;2022-09-17T13:19:18;16.30;95.90
45229;DHT22;30967;51.728;8.682;2022-09-17T13:21:54;16.30;95.60
45229;DHT22;30967;51.728;8.682;2022-09-17T13:24:26;16.40;95.70
45229;DHT22;30967;51.728;8.682;2022-09-17T13:26:55;16.40;96.00
45229;DHT22;30967;51.728;8.682;2022-09-17T13:30:01;16.40;96.10
45229;DHT22;30967;51.728;8.682;2022-09-17T13:37:39;16.50;96.60
45229;DHT22;30967;51.728;8.682;2022-09-17T13:40:35;16.60;96.60
45229;DHT22;30967;51.728;8.682;2022-09-17T13:45:33;16.70;97.00
45229;DHT22;30967;51.728;8.682;2022-09-17T13:48:31;16.80;97.10
45229;DHT22;30967;51.728;8.682;2022-09-17T13:53:55;16.90;96.80
45229;DHT22;30967;51.728;8.682;2022-09-17T13:56:42;17.00;96.70
45229;DHT22;30967;51.728;8.682;2022-09-17T13:59:17;17.10;96.40
45229;DHT22;30967;51.728;8.682;2022-09-17T14:04:45;17.30;96.20
45229;DHT22;30967;51.728;8.682;2022-09-17T14:09:58;17.50;96.40
45229;DHT22;30967;51.728;8.682;2022-09-17T14:15:53;17.70;95.80
45229;DHT22;30967;51.728;8.682;2022-09-17T14:21:12;17.80;95.60
45229;DHT22;30967;51.728;8.682;2022-09-17T14:23:43;17.90;95.40
45229;DHT22;30967;51.728;8.682;2022-09-17T14:26:11;17.90;95.40
45229;DHT22;30967;51.728;8.682;2022-09-17T14:29:06;17.90;94.80
45229;DHT22;30967;51.728;8.682;2022-09-17T14:31:37;18.00;95.10
45229;DHT22;30967;51.728;8.682;2022-09-17T14:34:05;18.00;95.30
45229;DHT22;30967;51.728;8.682;2022-09-17T14:36:34;18.00;95.40
45229;DHT22;30967;51.728;8.682;2022-09-17T14:39:04;18.00;95.30
45229;DHT22;30967;51.728;8.682;2022-09-17T14:41:38;18.00;95.20
45229;DHT22;30967;51.728;8.682;2022-09-17T14:44:07;18.00;95.30
45229;DHT22;30967;51.728;8.682;2022-09-17T14:46:54;18.00;95.30
45229;DHT22;30967;51.728;8.682;2022-09-17T14:49:25;17.90;95.30
45229;DHT22;30967;51.728;8.682;2022-09-17T14:51:53;17.90;95.30
45229;DHT22;30967;51.728;8.682;2022-09-17T15:04:56;17.60;94.60
45229;DHT22;30967;51.728;8.682;2022-09-17T15:07:22;17.60;94.70
45229;DHT22;30967;51.728;8.682;2022-09-17T15:09:48;17.60;94.70
45229;DHT22;30967;51.728;8.682;2022-09-17T15:12:23;17.50;94.90
45229;DHT22;30967;51.728;8.682;2022-09-17T15:14:51;17.50;94.80
45229;DHT22;30967;51.728;8.682;2022-09-17T15:17:21;17.50;94.80
45229;DHT22;30967;51.728;8.682;2022-09-17T15:19:50;17.50;94.80
45229;DHT22;30967;51.728;8.682;2022-09-17T15:22:22;17.50;94.80
45229;DHT22;30967;51.728;8.682;2022-09-17T15:24:55;17.50;94.90
45229;DHT22;30967;51.728;8.682;2022-09-17T15:32:35;17.50;95.10
45229;DHT22;30967;51.728;8.682;2022-09-17T15:35:31;17.50;95.20
45229;DHT22;30967;51.728;8.682;2022-09-17T15:38:18;17.50;95.10
45229;DHT22;30967;51.728;8.682;2022-09-17T15:40:45;17.50;95.30
45229;DHT22;30967;51.728;8.682;2022-09-17T15:43:19;17.40;95.70
45229;DHT22;30967;51.728;8.682;2022-09-17T15:45:46;17.40;95.20
45229;DHT22;30967;51.728;8.682;2022-09-17T15:50:54;17.40;95.30
45229;DHT22;30967;51.728;8.682;2022-09-17T15:53:25;17.30;95.30
45229;DHT22;30967;51.728;8.682;2022-09-17T15:58:29;17.30;95.10
45229;DHT22;30967;51.728;8.682;2022-09-17T16:08:55;17.20;95.70
45229;DHT22;30967;51.728;8.682;2022-09-17T16:11:23;17.20;95.60
45229;DHT22;30967;51.728;8.682;2022-09-17T16:13:50;17.20;95.50
45229;DHT22;30967;51.728;8.682;2022-09-17T16:16:26;17.20;95.70
45229;DHT22;30967;51.728;8.682;2022-09-17T16:18:53;17.10;96.10
45229;DHT22;30967;51.728;8.682;2022-09-17T16:21:19;17.10;96.20
45229;DHT22;30967;51.728;8.682;2022-09-17T16:23:45;17.10;95.80
45229;DHT22;30967;51.728;8.682;2022-09-17T16:26:19;17.00;95.60
45229;DHT22;30967;51.728;8.682;2022-09-17T16:28:52;17.00;95.30
45229;DHT22;30967;51.728;8.682;2022-09-17T16:31:18;17.00;94.70
45229;DHT22;30967;51.728;8.682;2022-09-17T16:33:45;16.90;94.40
45229;DHT22;30967;51.728;8.682;2022-09-17T16:36:11;16.80;94.50
45229;DHT22;30967;51.728;8.682;2022-09-17T16:38:36;16.80;94.80
45229;DHT22;30967;51.728;8.682;2022-09-17T16:41:07;16.70;95.10
45229;DHT22;30967;51.728;8.682;2022-09-17T16:43:33;16.60;95.60
45229;DHT22;30967;51.728;8.682;2022-09-17T16:46:05;16.60;95.80
45229;DHT22;30967;51.728;8.682;2022-09-17T16:48:31;16.50;96.00
45229;DHT22;30967;51.728;8.682;2022-09-17T16:50:58;16.40;96.00
45229;DHT22;30967;51.728;8.682;2022-09-17T16:53:24;16.40;96.10
45229;DHT22;30967;51.728;8.682;2022-09-17T16:55:49;16.30;96.40
45229;DHT22;30967;51.728;8.682;2022-09-17T16:58:15;16.30;96.50
45229;DHT22;30967;51.728;8.682;2022-09-17T17:00:43;16.20;96.60
45229;DHT22;30967;51.728;8.682;2022-09-17T17:03:11;16.20;96.80
45229;DHT22;30967;51.728;8.682;2022-09-17T17:05:37;16.10;96.90
45229;DHT22;30967;51.728;8.682;2022-09-17T17:08:03;16.10;97.10
45229;DHT22;30967;51.728;8.682;2022-09-17T17:10:29;16.10;97.20
45229;DHT22;30967;51.728;8.682;2022-09-17T17:12:55;16.10;97.40
45229;DHT22;30967;51.728;8.682;2022-09-17T17:15:22;16.00;97.40
45229;DHT22;30967;51.728;8.682;2022-09-17T17:17:51;16.00;97.60
45229;DHT22;30967;51.728;8.682;2022-09-17T17:20:16;15.90;98.00
45229;DHT22;30967;51.728;8.682;2022-09-17T17:22:43;15.90;98.40
45229;DHT22;30967;51.728;8.682;2022-09-17T17:25:10;15.70;98.80
45229;DHT22;30967;51.728;8.682;2022-09-17T17:27:36;15.70;99.00
45229;DHT22;30967;51.728;8.682;2022-09-17T17:30:04;15.70;99.00
45229;DHT22;30967;51.728;8.682;2022-09-17T17:32:32;15.60;99.10
45229;DHT22;30967;51.728;8.682;2022-09-17T17:34:58;15.60;99.50
45229;DHT22;30967;51.728;8.682;2022-09-17T17:37:24;15.60;99.50
45229;DHT22;30967;51.728;8.682;2022-09-17T17:39:51;15.60;99.50
45229;DHT22;30967;51.728;8.682;2022-09-17T17:42:19;15.60;99.50
45229;DHT22;30967;51.728;8.682;2022-09-17T17:44:45;15.60;99.50
45229;DHT22;30967;51.728;8.682;2022-09-17T17:47:13;15.60;99.60
45229;DHT22;30967;51.728;8.682;2022-09-17T17:49:42;15.60;99.70
45229;DHT22;30967;51.728;8.682;2022-09-17T17:52:08;15.60;99.90
45229;DHT22;30967;51.728;8.682;2022-09-17T17:54:34;15.50;99.70
45229;DHT22;30967;51.728;8.682;2022-09-17T17:57:00;15.50;99.70
45229;DHT22;30967;51.728;8.682;2022-09-17T17:59:25;15.50;99.60
45229;DHT22;30967;51.728;8.682;2022-09-17T18:01:52;15.50;99.60
45229;DHT22;30967;51.728;8.682;2022-09-17T18:04:24;15.50;99.60
45229;DHT22;30967;51.728;8.682;2022-09-17T18:06:49;15.50;99.60
45229;DHT22;30967;51.728;8.682;2022-09-17T18:09:15;15.50;99.70
45229;DHT22;30967;51.728;8.682;2022-09-17T18:11:40;15.50;99.70
45229;DHT22;30967;51.728;8.682;2022-09-17T18:14:08;15.40;99.80
45229;DHT22;30967;51.728;8.682;2022-09-17T18:16:35;15.40;99.70
45229;DHT22;30967;51.728;8.682;2022-09-17T18:19:00;15.40;99.90
45229;DHT22;30967;51.728;8.682;2022-09-17T18:21:26;15.40;99.90
45229;DHT22;30967;51.728;8.682;2022-09-17T18:23:53;15.40;99.90
45229;DHT22;30967;51.728;8.682;2022-09-17T18:26:23;15.30;99.80
45229;DHT22;30967;51.728;8.682;2022-09-17T18:28:50;15.30;99.60
45229;DHT22;30967;51.728;8.682;2022-09-17T18:33:44;15.40;99.80
45229;DHT22;30967;51.728;8.682;2022-09-17T18:36:16;15.30;99.70
45229;DHT22;30967;51.728;8.682;2022-09-17T18:38:42;15.30;99.50
45229;DHT22;30967;51.728;8.682;2022-09-17T18:41:11;15.20;99.50
45229;DHT22;30967;51.728;8.682;2022-09-17T18:43:37;15.20;99.50
45229;DHT22;30967;51.728;8.682;2022-09-17T18:46:03;15.20;99.50
45229;DHT22;30967;51.728;8.682;2022-09-17T18:48:31;15.20;99.60
45229;DHT22;30967;51.728;8.682;2022-09-17T18:51:12;15.20;99.60
45229;DHT22;30967;51.728;8.682;2022-09-17T18:53:39;15.20;99.60
45229;DHT22;30967;51.728;8.682;2022-09-17T18:58:30;15.20;99.60
45229;DHT22;30967;51.728;8.682;2022-09-17T19:00:56;15.20;99.60
45229;DHT22;30967;51.728;8.682;2022-09-17T19:03:22;15.20;99.50
45229;DHT22;30967;51.728;8.682;2022-09-17T19:05:49;15.20;99.60
45229;DHT22;30967;51.728;8.682;2022-09-17T19:08:20;15.20;99.50
45229;DHT22;30967;51.728;8.682;2022-09-17T19:10:52;15.10;99.30
45229;DHT22;30967;51.728;8.682;2022-09-17T19:13:18;15.10;99.10